Aviation Digital Data Service (ADDS)

Output produced by METARs form (0309 UTC 01 April 2015)
found at http://aviationweather.gov/adds/metars/
 
KPOU 010201Z 0102/0124 36004KT P6SM VCSH SCT005 BKN012 BKN025 
     TEMPO 0102/0104 1SM -DZ BR OVC002 
     FM010400 35004KT 3SM BR SCT025 SCT035 SCT100 
     FM010900 36004KT P6SM BCFG SCT100 BKN200 
     FM011500 33007KT P6SM SCT045 BKN100 BKN150